Terminal Aerodrome Forecast
Issued by NWS

Home | Current Version | Previous Version | Graphics & Text | Print | Product List | Glossary On
Versions: 1 2 3 4 5 6 7 8 9 10 11 12 13 14 15 16 17 18 19
000
FTUS43 KMPX 212300
TAFRNH
TAF
KRNH 212335Z 2200/2224 16009KT P6SM BKN040
     FM220800 15008KT P6SM VCTS SCT040CB BKN100
     FM221000 23010KT P6SM BKN100
     FM221400 29013KT P6SM SCT030
     FM221700 32014G21KT P6SM SCT040 SCT250=

USA.gov is the U.S. government's official web portal to all federal, state and local government web resources and services.